Lena, Ohio
Current Conditions -  °F | °C
As of 3:30 AM on Monday 22 Dec 2014 (Local Time) from KEDJ Reporting Station
Clear Clear  
Wind Chill: 20°   Ceiling: Unl
Heat Index: 27°   Visibility: 8mi
Dew Point: 23°   Wind: 6mph
Humidity: 86%   Direction: 140°SE
Pressure: 30.08"   Gusts: NA
Location:  40.1698°N, 84.0228°W
Report Text: KEDJ 220830Z AUTO 14005KT 8SM CLR M03/M05 A3008 RMK AO1
Loading
Personal Weather Stations






























Interactive Weather Map New forecast layout! Learn more

10-Day Weather Forecast

Advertisements
Track Severe Weather on mobile